sensor_id;sensor_type;location;lat;lon;timestamp;temperature;humidity
49503;DHT22;35409;48.776;9.204;2023-04-06T00:01:41;0.40;99.90
49503;DHT22;35409;48.776;9.204;2023-04-06T00:04:07;0.40;99.90
49503;DHT22;35409;48.776;9.204;2023-04-06T00:06:33;0.40;99.90
49503;DHT22;35409;48.776;9.204;2023-04-06T00:08:59;0.40;99.90
49503;DHT22;35409;48.776;9.204;2023-04-06T00:11:25;0.50;99.90
49503;DHT22;35409;48.776;9.204;2023-04-06T00:13:51;0.50;99.90
49503;DHT22;35409;48.776;9.204;2023-04-06T00:16:17;0.50;99.90
49503;DHT22;35409;48.776;9.204;2023-04-06T00:18:43;0.60;99.90
49503;DHT22;35409;48.776;9.204;2023-04-06T00:21:11;0.60;99.90
49503;DHT22;35409;48.776;9.204;2023-04-06T00:23:38;0.50;99.90
49503;DHT22;35409;48.776;9.204;2023-04-06T00:26:04;0.50;99.90
49503;DHT22;35409;48.776;9.204;2023-04-06T00:28:29;0.40;99.90
49503;DHT22;35409;48.776;9.204;2023-04-06T00:30:55;0.30;99.90
49503;DHT22;35409;48.776;9.204;2023-04-06T00:33:24;0.40;99.90
49503;DHT22;35409;48.776;9.204;2023-04-06T00:35:50;0.30;99.90
49503;DHT22;35409;48.776;9.204;2023-04-06T00:38:16;0.20;99.90
49503;DHT22;35409;48.776;9.204;2023-04-06T00:40:43;0.20;99.90
49503;DHT22;35409;48.776;9.204;2023-04-06T00:43:12;0.10;99.90
49503;DHT22;35409;48.776;9.204;2023-04-06T00:45:38;0.10;99.90
49503;DHT22;35409;48.776;9.204;2023-04-06T00:48:05;0.10;99.90
49503;DHT22;35409;48.776;9.204;2023-04-06T00:50:31;0.10;99.90
49503;DHT22;35409;48.776;9.204;2023-04-06T00:52:56;0.10;99.90
49503;DHT22;35409;48.776;9.204;2023-04-06T00:55:22;0.10;99.90
49503;DHT22;35409;48.776;9.204;2023-04-06T00:57:48;0.10;99.90
49503;DHT22;35409;48.776;9.204;2023-04-06T01:00:16;0.20;99.90
49503;DHT22;35409;48.776;9.204;2023-04-06T01:02:42;0.10;99.90
49503;DHT22;35409;48.776;9.204;2023-04-06T01:05:08;0.10;99.90
49503;DHT22;35409;48.776;9.204;2023-04-06T01:07:33;0.10;99.90
49503;DHT22;35409;48.776;9.204;2023-04-06T01:09:59;0.10;99.90
49503;DHT22;35409;48.776;9.204;2023-04-06T01:12:25;0.10;99.90
49503;DHT22;35409;48.776;9.204;2023-04-06T01:14:50;0.10;99.90
49503;DHT22;35409;48.776;9.204;2023-04-06T01:17:16;0.00;99.90
49503;DHT22;35409;48.776;9.204;2023-04-06T01:19:42;-0.10;99.90
49503;DHT22;35409;48.776;9.204;2023-04-06T02:21:01;-0.40;99.90
49503;DHT22;35409;48.776;9.204;2023-04-06T02:23:26;-0.50;99.90
49503;DHT22;35409;48.776;9.204;2023-04-06T02:25:52;-0.50;99.90
49503;DHT22;35409;48.776;9.204;2023-04-06T02:28:18;-0.50;99.90
49503;DHT22;35409;48.776;9.204;2023-04-06T02:30:43;-0.60;99.90
49503;DHT22;35409;48.776;9.204;2023-04-06T02:33:09;-0.70;99.90
49503;DHT22;35409;48.776;9.204;2023-04-06T02:35:34;-0.70;99.90
49503;DHT22;35409;48.776;9.204;2023-04-06T02:38:00;-0.70;99.90
49503;DHT22;35409;48.776;9.204;2023-04-06T02:40:26;-0.80;99.90
49503;DHT22;35409;48.776;9.204;2023-04-06T02:42:51;-0.80;99.90
49503;DHT22;35409;48.776;9.204;2023-04-06T02:45:17;-0.80;99.90
49503;DHT22;35409;48.776;9.204;2023-04-06T02:47:43;-0.90;99.90
49503;DHT22;35409;48.776;9.204;2023-04-06T02:50:09;-0.90;99.90
49503;DHT22;35409;48.776;9.204;2023-04-06T02:52:35;-0.90;99.90
49503;DHT22;35409;48.776;9.204;2023-04-06T02:55:00;-0.90;99.90
49503;DHT22;35409;48.776;9.204;2023-04-06T02:57:26;-0.90;99.90
49503;DHT22;35409;48.776;9.204;2023-04-06T02:59:51;-0.90;99.90
49503;DHT22;35409;48.776;9.204;2023-04-06T03:02:17;-1.00;99.90
49503;DHT22;35409;48.776;9.204;2023-04-06T03:04:43;-1.00;99.90
49503;DHT22;35409;48.776;9.204;2023-04-06T03:07:09;-1.00;99.90
49503;DHT22;35409;48.776;9.204;2023-04-06T03:09:37;-1.10;99.90
49503;DHT22;35409;48.776;9.204;2023-04-06T03:12:02;-1.20;99.90
49503;DHT22;35409;48.776;9.204;2023-04-06T03:14:28;-1.20;99.90
49503;DHT22;35409;48.776;9.204;2023-04-06T03:16:54;-1.30;99.90
49503;DHT22;35409;48.776;9.204;2023-04-06T03:19:20;-1.20;99.90
49503;DHT22;35409;48.776;9.204;2023-04-06T03:21:45;-1.20;99.90
49503;DHT22;35409;48.776;9.204;2023-04-06T03:24:11;-1.30;99.90
49503;DHT22;35409;48.776;9.204;2023-04-06T03:26:39;-1.20;99.90
49503;DHT22;35409;48.776;9.204;2023-04-06T03:29:04;-1.30;99.90
49503;DHT22;35409;48.776;9.204;2023-04-06T03:31:30;-1.30;99.90
49503;DHT22;35409;48.776;9.204;2023-04-06T03:33:56;-1.30;99.90
49503;DHT22;35409;48.776;9.204;2023-04-06T03:36:21;-1.30;99.90
49503;DHT22;35409;48.776;9.204;2023-04-06T03:38:47;-1.40;99.90
49503;DHT22;35409;48.776;9.204;2023-04-06T03:41:13;-1.40;99.90
49503;DHT22;35409;48.776;9.204;2023-04-06T03:43:38;-1.40;99.90
49503;DHT22;35409;48.776;9.204;2023-04-06T03:46:04;-1.30;99.90
49503;DHT22;35409;48.776;9.204;2023-04-06T03:48:30;-1.20;99.90
49503;DHT22;35409;48.776;9.204;2023-04-06T03:50:55;-1.10;99.90
49503;DHT22;35409;48.776;9.204;2023-04-06T03:53:21;-1.10;99.90
49503;DHT22;35409;48.776;9.204;2023-04-06T03:55:47;-1.10;99.90
49503;DHT22;35409;48.776;9.204;2023-04-06T03:58:12;-1.10;99.90
49503;DHT22;35409;48.776;9.204;2023-04-06T04:00:38;-1.10;99.90
49503;DHT22;35409;48.776;9.204;2023-04-06T04:03:04;-1.30;99.90
49503;DHT22;35409;48.776;9.204;2023-04-06T04:05:29;-1.30;99.90
49503;DHT22;35409;48.776;9.204;2023-04-06T04:07:55;-1.40;99.90
49503;DHT22;35409;48.776;9.204;2023-04-06T04:10:21;-1.40;99.90
49503;DHT22;35409;48.776;9.204;2023-04-06T04:12:46;-1.50;99.90
49503;DHT22;35409;48.776;9.204;2023-04-06T04:15:12;-1.50;99.90
49503;DHT22;35409;48.776;9.204;2023-04-06T04:17:38;-1.50;99.90
49503;DHT22;35409;48.776;9.204;2023-04-06T04:20:03;-1.50;99.90
49503;DHT22;35409;48.776;9.204;2023-04-06T04:22:29;-1.50;99.90
49503;DHT22;35409;48.776;9.204;2023-04-06T04:24:55;-1.50;99.90
49503;DHT22;35409;48.776;9.204;2023-04-06T04:27:20;-1.60;99.90
49503;DHT22;35409;48.776;9.204;2023-04-06T04:29:47;-1.60;99.90
49503;DHT22;35409;48.776;9.204;2023-04-06T04:32:12;-1.60;99.90
49503;DHT22;35409;48.776;9.204;2023-04-06T04:34:38;-1.60;99.90
49503;DHT22;35409;48.776;9.204;2023-04-06T04:37:06;-1.60;99.90
49503;DHT22;35409;48.776;9.204;2023-04-06T04:39:32;-1.60;99.90
49503;DHT22;35409;48.776;9.204;2023-04-06T04:41:58;-1.60;99.90
49503;DHT22;35409;48.776;9.204;2023-04-06T04:44:23;-1.60;99.90
49503;DHT22;35409;48.776;9.204;2023-04-06T04:46:49;-1.60;99.90
49503;DHT22;35409;48.776;9.204;2023-04-06T04:49:15;-1.60;99.90
49503;DHT22;35409;48.776;9.204;2023-04-06T04:51:40;-1.60;99.90
49503;DHT22;35409;48.776;9.204;2023-04-06T04:54:06;-1.60;99.90
49503;DHT22;35409;48.776;9.204;2023-04-06T04:56:32;-1.50;99.90
49503;DHT22;35409;48.776;9.204;2023-04-06T04:58:57;-1.60;99.90
49503;DHT22;35409;48.776;9.204;2023-04-06T05:01:23;-1.50;99.90
49503;DHT22;35409;48.776;9.204;2023-04-06T05:03:49;-1.50;99.90
49503;DHT22;35409;48.776;9.204;2023-04-06T05:06:14;-1.50;99.90
49503;DHT22;35409;48.776;9.204;2023-04-06T05:08:41;-1.50;99.90
49503;DHT22;35409;48.776;9.204;2023-04-06T05:11:06;-1.40;99.90
49503;DHT22;35409;48.776;9.204;2023-04-06T05:13:32;-1.40;99.90
49503;DHT22;35409;48.776;9.204;2023-04-06T05:15:58;-1.40;99.90
49503;DHT22;35409;48.776;9.204;2023-04-06T05:18:24;-1.50;99.90
49503;DHT22;35409;48.776;9.204;2023-04-06T05:20:50;-1.40;99.90
49503;DHT22;35409;48.776;9.204;2023-04-06T05:23:17;-1.30;99.90
49503;DHT22;35409;48.776;9.204;2023-04-06T05:25:42;-1.30;99.90
49503;DHT22;35409;48.776;9.204;2023-04-06T05:28:08;-1.30;99.90
49503;DHT22;35409;48.776;9.204;2023-04-06T05:30:34;-1.20;99.90
49503;DHT22;35409;48.776;9.204;2023-04-06T05:33:01;-1.10;99.90
49503;DHT22;35409;48.776;9.204;2023-04-06T05:35:26;-1.00;99.90
49503;DHT22;35409;48.776;9.204;2023-04-06T05:37:52;-0.90;99.90
49503;DHT22;35409;48.776;9.204;2023-04-06T05:40:18;-0.70;99.90
49503;DHT22;35409;48.776;9.204;2023-04-06T05:42:43;-0.50;99.90
49503;DHT22;35409;48.776;9.204;2023-04-06T05:45:10;-0.50;99.90
49503;DHT22;35409;48.776;9.204;2023-04-06T05:47:37;-0.40;99.90
49503;DHT22;35409;48.776;9.204;2023-04-06T05:50:03;-0.30;99.90
49503;DHT22;35409;48.776;9.204;2023-04-06T05:52:28;-0.30;99.90
49503;DHT22;35409;48.776;9.204;2023-04-06T05:54:54;-0.20;99.90
49503;DHT22;35409;48.776;9.204;2023-04-06T05:57:20;-0.20;99.90
49503;DHT22;35409;48.776;9.204;2023-04-06T05:59:45;-0.10;99.90
49503;DHT22;35409;48.776;9.204;2023-04-06T06:02:11;0.00;99.90
49503;DHT22;35409;48.776;9.204;2023-04-06T06:04:37;0.10;99.90
49503;DHT22;35409;48.776;9.204;2023-04-06T06:07:03;0.20;99.90
49503;DHT22;35409;48.776;9.204;2023-04-06T06:09:29;0.30;99.90
49503;DHT22;35409;48.776;9.204;2023-04-06T06:11:54;0.40;99.90
49503;DHT22;35409;48.776;9.204;2023-04-06T06:14:20;0.50;99.90
49503;DHT22;35409;48.776;9.204;2023-04-06T06:16:47;0.60;99.90
49503;DHT22;35409;48.776;9.204;2023-04-06T06:19:13;0.60;99.90
49503;DHT22;35409;48.776;9.204;2023-04-06T06:21:39;0.80;99.90
49503;DHT22;35409;48.776;9.204;2023-04-06T06:24:05;0.90;99.90
49503;DHT22;35409;48.776;9.204;2023-04-06T06:26:30;1.00;99.90
49503;DHT22;35409;48.776;9.204;2023-04-06T06:28:56;1.00;99.90
49503;DHT22;35409;48.776;9.204;2023-04-06T06:31:22;1.10;99.90
49503;DHT22;35409;48.776;9.204;2023-04-06T06:33:50;1.20;99.90
49503;DHT22;35409;48.776;9.204;2023-04-06T06:36:19;1.30;99.90
49503;DHT22;35409;48.776;9.204;2023-04-06T06:38:45;1.40;99.90
49503;DHT22;35409;48.776;9.204;2023-04-06T06:41:11;1.50;99.90
49503;DHT22;35409;48.776;9.204;2023-04-06T07:17:48;3.50;99.90
49503;DHT22;35409;48.776;9.204;2023-04-06T07:20:14;3.60;99.90
49503;DHT22;35409;48.776;9.204;2023-04-06T07:22:44;3.70;99.90
49503;DHT22;35409;48.776;9.204;2023-04-06T07:25:13;3.80;99.90
49503;DHT22;35409;48.776;9.204;2023-04-06T07:27:39;4.00;99.90
49503;DHT22;35409;48.776;9.204;2023-04-06T07:30:05;4.00;99.90
49503;DHT22;35409;48.776;9.204;2023-04-06T07:32:31;4.20;99.90
49503;DHT22;35409;48.776;9.204;2023-04-06T07:34:57;4.30;99.90
49503;DHT22;35409;48.776;9.204;2023-04-06T07:37:23;4.40;99.90
49503;DHT22;35409;48.776;9.204;2023-04-06T07:39:49;4.60;99.90
49503;DHT22;35409;48.776;9.204;2023-04-06T07:42:14;4.70;99.90
49503;DHT22;35409;48.776;9.204;2023-04-06T07:44:40;4.80;99.90
49503;DHT22;35409;48.776;9.204;2023-04-06T07:47:06;4.90;99.90
49503;DHT22;35409;48.776;9.204;2023-04-06T07:49:31;5.00;99.90
49503;DHT22;35409;48.776;9.204;2023-04-06T07:51:58;5.00;99.90
49503;DHT22;35409;48.776;9.204;2023-04-06T07:54:23;5.30;99.90
49503;DHT22;35409;48.776;9.204;2023-04-06T07:56:49;5.30;99.90
49503;DHT22;35409;48.776;9.204;2023-04-06T07:59:15;5.40;99.90
49503;DHT22;35409;48.776;9.204;2023-04-06T08:01:41;5.60;99.90
49503;DHT22;35409;48.776;9.204;2023-04-06T08:04:07;5.70;99.90
49503;DHT22;35409;48.776;9.204;2023-04-06T08:06:32;5.80;99.90
49503;DHT22;35409;48.776;9.204;2023-04-06T08:08:58;5.90;99.90
49503;DHT22;35409;48.776;9.204;2023-04-06T08:11:24;6.00;99.90
49503;DHT22;35409;48.776;9.204;2023-04-06T08:13:50;6.10;99.90
49503;DHT22;35409;48.776;9.204;2023-04-06T08:16:15;6.20;99.90
49503;DHT22;35409;48.776;9.204;2023-04-06T08:18:41;6.40;99.90
49503;DHT22;35409;48.776;9.204;2023-04-06T08:21:07;6.40;99.90
49503;DHT22;35409;48.776;9.204;2023-04-06T09:10:00;9.30;99.90
49503;DHT22;35409;48.776;9.204;2023-04-06T09:12:30;9.50;99.90
49503;DHT22;35409;48.776;9.204;2023-04-06T09:14:57;9.60;99.90
49503;DHT22;35409;48.776;9.204;2023-04-06T09:17:25;9.60;99.90
49503;DHT22;35409;48.776;9.204;2023-04-06T09:19:51;9.60;99.90
49503;DHT22;35409;48.776;9.204;2023-04-06T09:22:18;9.60;99.90
49503;DHT22;35409;48.776;9.204;2023-04-06T09:24:49;9.70;99.90
49503;DHT22;35409;48.776;9.204;2023-04-06T09:27:15;9.80;99.90
49503;DHT22;35409;48.776;9.204;2023-04-06T09:29:41;9.80;99.90
49503;DHT22;35409;48.776;9.204;2023-04-06T09:32:09;9.90;99.90
49503;DHT22;35409;48.776;9.204;2023-04-06T09:34:40;10.00;99.90
49503;DHT22;35409;48.776;9.204;2023-04-06T09:37:13;10.20;99.90
49503;DHT22;35409;48.776;9.204;2023-04-06T09:39:40;10.20;99.80
49503;DHT22;35409;48.776;9.204;2023-04-06T09:42:05;10.20;99.30
49503;DHT22;35409;48.776;9.204;2023-04-06T10:32:08;12.00;95.10
49503;DHT22;35409;48.776;9.204;2023-04-06T10:34:35;12.00;91.00
49503;DHT22;35409;48.776;9.204;2023-04-06T10:37:14;12.00;91.10
49503;DHT22;35409;48.776;9.204;2023-04-06T10:39:47;12.10;90.80
49503;DHT22;35409;48.776;9.204;2023-04-06T10:42:24;12.10;91.00
49503;DHT22;35409;48.776;9.204;2023-04-06T10:49:45;12.40;95.00
49503;DHT22;35409;48.776;9.204;2023-04-06T10:52:10;12.60;64.00
49503;DHT22;35409;48.776;9.204;2023-04-06T10:54:41;12.80;64.10
49503;DHT22;35409;48.776;9.204;2023-04-06T10:57:08;13.00;63.00
49503;DHT22;35409;48.776;9.204;2023-04-06T10:59:33;13.10;64.50
49503;DHT22;35409;48.776;9.204;2023-04-06T11:01:59;13.20;66.00
49503;DHT22;35409;48.776;9.204;2023-04-06T11:04:25;13.30;63.50
49503;DHT22;35409;48.776;9.204;2023-04-06T11:06:51;13.50;62.70
49503;DHT22;35409;48.776;9.204;2023-04-06T11:09:27;13.70;62.10
49503;DHT22;35409;48.776;9.204;2023-04-06T11:11:54;13.80;61.00
49503;DHT22;35409;48.776;9.204;2023-04-06T11:14:20;13.90;59.80
49503;DHT22;35409;48.776;9.204;2023-04-06T11:16:47;13.80;60.50
49503;DHT22;35409;48.776;9.204;2023-04-06T11:19:15;13.80;60.20
49503;DHT22;35409;48.776;9.204;2023-04-06T11:21:46;14.00;59.80
49503;DHT22;35409;48.776;9.204;2023-04-06T11:24:14;14.20;59.50
49503;DHT22;35409;48.776;9.204;2023-04-06T11:26:47;14.50;59.40
49503;DHT22;35409;48.776;9.204;2023-04-06T11:29:16;14.70;58.00
49503;DHT22;35409;48.776;9.204;2023-04-06T11:31:46;14.80;57.80
49503;DHT22;35409;48.776;9.204;2023-04-06T11:34:20;15.00;58.50
49503;DHT22;35409;48.776;9.204;2023-04-06T11:36:48;15.10;57.40
49503;DHT22;35409;48.776;9.204;2023-04-06T11:39:21;15.30;57.60
49503;DHT22;35409;48.776;9.204;2023-04-06T11:41:53;15.70;57.10
49503;DHT22;35409;48.776;9.204;2023-04-06T11:44:49;16.00;55.70
49503;DHT22;35409;48.776;9.204;2023-04-06T11:47:15;16.50;54.40
49503;DHT22;35409;48.776;9.204;2023-04-06T11:49:42;16.80;55.40
49503;DHT22;35409;48.776;9.204;2023-04-06T11:52:21;17.00;77.20
49503;DHT22;35409;48.776;9.204;2023-04-06T11:54:48;17.00;76.70
49503;DHT22;35409;48.776;9.204;2023-04-06T11:57:16;17.10;76.10
49503;DHT22;35409;48.776;9.204;2023-04-06T11:59:42;17.10;75.80
49503;DHT22;35409;48.776;9.204;2023-04-06T12:02:09;17.10;75.90
49503;DHT22;35409;48.776;9.204;2023-04-06T12:04:34;17.00;76.30
49503;DHT22;35409;48.776;9.204;2023-04-06T12:07:00;16.80;76.80
49503;DHT22;35409;48.776;9.204;2023-04-06T12:09:26;16.80;75.40
49503;DHT22;35409;48.776;9.204;2023-04-06T12:11:52;16.70;75.60
49503;DHT22;35409;48.776;9.204;2023-04-06T12:14:17;16.70;75.40
49503;DHT22;35409;48.776;9.204;2023-04-06T12:16:43;16.60;75.40
49503;DHT22;35409;48.776;9.204;2023-04-06T12:19:09;16.80;75.40
49503;DHT22;35409;48.776;9.204;2023-04-06T12:21:35;17.00;74.20
49503;DHT22;35409;48.776;9.204;2023-04-06T12:24:04;17.10;74.50
49503;DHT22;35409;48.776;9.204;2023-04-06T12:26:30;17.20;75.10
49503;DHT22;35409;48.776;9.204;2023-04-06T12:28:56;17.20;74.30
49503;DHT22;35409;48.776;9.204;2023-04-06T12:31:22;17.10;74.10
49503;DHT22;35409;48.776;9.204;2023-04-06T12:33:51;17.10;74.70
49503;DHT22;35409;48.776;9.204;2023-04-06T12:36:18;17.10;74.90
49503;DHT22;35409;48.776;9.204;2023-04-06T12:38:45;17.00;73.80
49503;DHT22;35409;48.776;9.204;2023-04-06T12:43:42;17.90;78.80
49503;DHT22;35409;48.776;9.204;2023-04-06T12:46:08;18.20;48.50
49503;DHT22;35409;48.776;9.204;2023-04-06T12:48:34;18.00;47.70
49503;DHT22;35409;48.776;9.204;2023-04-06T12:51:04;18.00;48.30
49503;DHT22;35409;48.776;9.204;2023-04-06T12:53:31;18.10;48.00
49503;DHT22;35409;48.776;9.204;2023-04-06T12:55:57;18.00;48.00
49503;DHT22;35409;48.776;9.204;2023-04-06T12:58:24;17.90;47.40
49503;DHT22;35409;48.776;9.204;2023-04-06T13:00:52;18.10;47.80
49503;DHT22;35409;48.776;9.204;2023-04-06T13:03:19;18.00;47.00
49503;DHT22;35409;48.776;9.204;2023-04-06T13:05:49;17.90;46.50
49503;DHT22;35409;48.776;9.204;2023-04-06T13:08:15;18.00;47.70
49503;DHT22;35409;48.776;9.204;2023-04-06T13:10:48;18.30;47.10
49503;DHT22;35409;48.776;9.204;2023-04-06T13:13:14;18.50;47.30
49503;DHT22;35409;48.776;9.204;2023-04-06T13:15:40;18.60;47.20
49503;DHT22;35409;48.776;9.204;2023-04-06T13:18:07;18.90;47.40
49503;DHT22;35409;48.776;9.204;2023-04-06T13:20:32;18.90;46.80
49503;DHT22;35409;48.776;9.204;2023-04-06T13:22:58;18.90;46.60
49503;DHT22;35409;48.776;9.204;2023-04-06T13:25:24;18.30;46.20
49503;DHT22;35409;48.776;9.204;2023-04-06T13:27:49;17.30;46.50
49503;DHT22;35409;48.776;9.204;2023-04-06T13:30:15;16.80;48.60
49503;DHT22;35409;48.776;9.204;2023-04-06T13:32:41;16.50;49.30
49503;DHT22;35409;48.776;9.204;2023-04-06T13:35:07;16.50;48.90
49503;DHT22;35409;48.776;9.204;2023-04-06T13:37:34;16.60;48.20
49503;DHT22;35409;48.776;9.204;2023-04-06T13:39:59;16.70;48.30
49503;DHT22;35409;48.776;9.204;2023-04-06T13:42:26;16.90;48.90
49503;DHT22;35409;48.776;9.204;2023-04-06T13:44:52;17.20;48.10
49503;DHT22;35409;48.776;9.204;2023-04-06T13:47:19;17.20;48.30
49503;DHT22;35409;48.776;9.204;2023-04-06T13:49:46;17.00;47.80
49503;DHT22;35409;48.776;9.204;2023-04-06T13:52:13;16.90;48.80
49503;DHT22;35409;48.776;9.204;2023-04-06T13:54:38;16.90;49.10
49503;DHT22;35409;48.776;9.204;2023-04-06T13:57:04;17.10;47.30
49503;DHT22;35409;48.776;9.204;2023-04-06T13:59:36;17.00;47.60
49503;DHT22;35409;48.776;9.204;2023-04-06T14:02:03;16.50;47.80
49503;DHT22;35409;48.776;9.204;2023-04-06T14:04:29;16.30;48.80
49503;DHT22;35409;48.776;9.204;2023-04-06T14:06:56;16.10;50.40
49503;DHT22;35409;48.776;9.204;2023-04-06T14:09:22;16.10;48.80
49503;DHT22;35409;48.776;9.204;2023-04-06T14:11:48;16.10;49.10
49503;DHT22;35409;48.776;9.204;2023-04-06T14:14:13;16.10;48.40
49503;DHT22;35409;48.776;9.204;2023-04-06T14:16:40;15.80;48.50
49503;DHT22;35409;48.776;9.204;2023-04-06T14:19:09;15.60;48.90
49503;DHT22;35409;48.776;9.204;2023-04-06T14:21:35;15.60;49.40
49503;DHT22;35409;48.776;9.204;2023-04-06T14:24:02;15.70;49.90
49503;DHT22;35409;48.776;9.204;2023-04-06T14:26:27;15.70;49.30
49503;DHT22;35409;48.776;9.204;2023-04-06T14:28:53;15.80;49.70
49503;DHT22;35409;48.776;9.204;2023-04-06T14:31:18;16.00;49.60
49503;DHT22;35409;48.776;9.204;2023-04-06T14:33:44;16.20;49.10
49503;DHT22;35409;48.776;9.204;2023-04-06T14:36:10;16.30;48.30
49503;DHT22;35409;48.776;9.204;2023-04-06T14:38:36;16.10;48.90
49503;DHT22;35409;48.776;9.204;2023-04-06T14:41:02;16.10;49.00
49503;DHT22;35409;48.776;9.204;2023-04-06T14:43:27;16.20;49.70
49503;DHT22;35409;48.776;9.204;2023-04-06T14:45:53;16.40;48.70
49503;DHT22;35409;48.776;9.204;2023-04-06T14:48:18;16.70;48.80
49503;DHT22;35409;48.776;9.204;2023-04-06T14:50:54;17.00;49.10
49503;DHT22;35409;48.776;9.204;2023-04-06T14:53:21;17.20;47.10
49503;DHT22;35409;48.776;9.204;2023-04-06T14:55:48;17.30;47.90
49503;DHT22;35409;48.776;9.204;2023-04-06T14:58:17;17.40;46.80
49503;DHT22;35409;48.776;9.204;2023-04-06T15:00:43;17.40;48.00
49503;DHT22;35409;48.776;9.204;2023-04-06T15:03:08;17.30;47.30
49503;DHT22;35409;48.776;9.204;2023-04-06T15:05:34;17.30;47.30
49503;DHT22;35409;48.776;9.204;2023-04-06T15:08:00;17.30;46.90
49503;DHT22;35409;48.776;9.204;2023-04-06T15:10:26;17.30;46.90
49503;DHT22;35409;48.776;9.204;2023-04-06T15:12:51;17.20;47.20
49503;DHT22;35409;48.776;9.204;2023-04-06T15:15:17;17.00;47.90
49503;DHT22;35409;48.776;9.204;2023-04-06T15:17:42;16.90;47.90
49503;DHT22;35409;48.776;9.204;2023-04-06T15:20:08;16.80;48.10
49503;DHT22;35409;48.776;9.204;2023-04-06T15:22:35;16.40;47.90
49503;DHT22;35409;48.776;9.204;2023-04-06T15:25:01;16.20;48.70
49503;DHT22;35409;48.776;9.204;2023-04-06T15:27:27;16.10;48.90
49503;DHT22;35409;48.776;9.204;2023-04-06T15:29:52;16.00;49.30
49503;DHT22;35409;48.776;9.204;2023-04-06T15:32:19;16.10;49.10
49503;DHT22;35409;48.776;9.204;2023-04-06T15:34:45;16.00;49.30
49503;DHT22;35409;48.776;9.204;2023-04-06T15:37:10;16.00;49.70
49503;DHT22;35409;48.776;9.204;2023-04-06T15:39:36;15.90;50.10
49503;DHT22;35409;48.776;9.204;2023-04-06T15:42:02;15.90;49.60
49503;DHT22;35409;48.776;9.204;2023-04-06T15:44:28;15.90;49.20
49503;DHT22;35409;48.776;9.204;2023-04-06T15:46:54;15.80;49.70
49503;DHT22;35409;48.776;9.204;2023-04-06T15:49:20;15.80;49.60
49503;DHT22;35409;48.776;9.204;2023-04-06T15:51:50;15.80;49.00
49503;DHT22;35409;48.776;9.204;2023-04-06T15:54:15;15.70;49.40
49503;DHT22;35409;48.776;9.204;2023-04-06T15:56:42;15.70;49.60
49503;DHT22;35409;48.776;9.204;2023-04-06T15:59:08;15.60;49.10
49503;DHT22;35409;48.776;9.204;2023-04-06T16:01:33;15.50;49.50
49503;DHT22;35409;48.776;9.204;2023-04-06T16:03:59;15.20;49.20
49503;DHT22;35409;48.776;9.204;2023-04-06T16:06:25;15.00;50.10
49503;DHT22;35409;48.776;9.204;2023-04-06T16:08:51;14.90;50.00
49503;DHT22;35409;48.776;9.204;2023-04-06T16:11:17;14.70;50.60
49503;DHT22;35409;48.776;9.204;2023-04-06T16:13:43;14.70;50.70
49503;DHT22;35409;48.776;9.204;2023-04-06T16:16:09;14.50;51.90
49503;DHT22;35409;48.776;9.204;2023-04-06T16:18:34;14.40;52.20
49503;DHT22;35409;48.776;9.204;2023-04-06T16:21:00;14.40;52.30
49503;DHT22;35409;48.776;9.204;2023-04-06T16:23:26;14.30;52.40
49503;DHT22;35409;48.776;9.204;2023-04-06T16:25:52;14.30;51.90
49503;DHT22;35409;48.776;9.204;2023-04-06T16:28:22;14.30;52.20
49503;DHT22;35409;48.776;9.204;2023-04-06T16:30:49;14.30;51.90
49503;DHT22;35409;48.776;9.204;2023-04-06T16:33:15;14.30;52.80
49503;DHT22;35409;48.776;9.204;2023-04-06T16:35:47;14.20;51.90
49503;DHT22;35409;48.776;9.204;2023-04-06T16:38:14;14.00;52.00
49503;DHT22;35409;48.776;9.204;2023-04-06T16:40:40;13.80;52.50
49503;DHT22;35409;48.776;9.204;2023-04-06T16:43:06;13.70;52.70
49503;DHT22;35409;48.776;9.204;2023-04-06T16:45:31;13.60;53.50
49503;DHT22;35409;48.776;9.204;2023-04-06T16:47:57;13.40;54.70
49503;DHT22;35409;48.776;9.204;2023-04-06T16:50:23;13.30;54.10
49503;DHT22;35409;48.776;9.204;2023-04-06T16:52:48;13.20;54.60
49503;DHT22;35409;48.776;9.204;2023-04-06T16:55:14;13.10;54.70
49503;DHT22;35409;48.776;9.204;2023-04-06T16:57:39;12.90;54.80
49503;DHT22;35409;48.776;9.204;2023-04-06T17:00:06;12.80;55.00
49503;DHT22;35409;48.776;9.204;2023-04-06T17:02:32;12.80;58.10
49503;DHT22;35409;48.776;9.204;2023-04-06T17:05:00;12.70;57.10
49503;DHT22;35409;48.776;9.204;2023-04-06T17:07:26;12.60;59.20
49503;DHT22;35409;48.776;9.204;2023-04-06T17:09:59;12.40;59.90
49503;DHT22;35409;48.776;9.204;2023-04-06T17:12:26;12.30;60.50
49503;DHT22;35409;48.776;9.204;2023-04-06T17:31:53;11.70;59.40
49503;DHT22;35409;48.776;9.204;2023-04-06T17:34:19;11.70;58.50
49503;DHT22;35409;48.776;9.204;2023-04-06T17:36:45;11.60;59.10
49503;DHT22;35409;48.776;9.204;2023-04-06T17:39:10;11.40;59.00
49503;DHT22;35409;48.776;9.204;2023-04-06T17:41:38;11.50;58.50
49503;DHT22;35409;48.776;9.204;2023-04-06T17:44:03;11.30;58.40
49503;DHT22;35409;48.776;9.204;2023-04-06T17:46:30;11.30;58.90
49503;DHT22;35409;48.776;9.204;2023-04-06T17:48:55;11.20;58.00
49503;DHT22;35409;48.776;9.204;2023-04-06T17:51:21;11.30;57.20
49503;DHT22;35409;48.776;9.204;2023-04-06T17:53:47;11.20;57.60
49503;DHT22;35409;48.776;9.204;2023-04-06T17:56:14;11.10;58.20
49503;DHT22;35409;48.776;9.204;2023-04-06T17:58:40;11.00;58.40
49503;DHT22;35409;48.776;9.204;2023-04-06T18:01:06;11.00;58.80
49503;DHT22;35409;48.776;9.204;2023-04-06T18:03:39;11.00;58.90
49503;DHT22;35409;48.776;9.204;2023-04-06T18:06:11;10.90;58.80
49503;DHT22;35409;48.776;9.204;2023-04-06T18:08:38;10.90;60.00
49503;DHT22;35409;48.776;9.204;2023-04-06T18:11:03;10.90;59.80
49503;DHT22;35409;48.776;9.204;2023-04-06T18:13:30;10.90;60.80
49503;DHT22;35409;48.776;9.204;2023-04-06T18:15:56;10.80;61.00
49503;DHT22;35409;48.776;9.204;2023-04-06T18:18:21;10.90;61.00
49503;DHT22;35409;48.776;9.204;2023-04-06T18:20:47;10.80;61.00
49503;DHT22;35409;48.776;9.204;2023-04-06T18:23:12;10.80;61.40
49503;DHT22;35409;48.776;9.204;2023-04-06T18:25:38;10.70;61.50
49503;DHT22;35409;48.776;9.204;2023-04-06T18:28:05;10.70;62.10
49503;DHT22;35409;48.776;9.204;2023-04-06T18:30:31;10.70;62.80
49503;DHT22;35409;48.776;9.204;2023-04-06T18:32:56;10.60;62.70
49503;DHT22;35409;48.776;9.204;2023-04-06T18:35:22;10.50;63.20
49503;DHT22;35409;48.776;9.204;2023-04-06T18:37:47;10.50;63.40
49503;DHT22;35409;48.776;9.204;2023-04-06T18:40:41;10.50;63.40
49503;DHT22;35409;48.776;9.204;2023-04-06T18:43:07;10.50;63.20
49503;DHT22;35409;48.776;9.204;2023-04-06T18:45:34;10.50;64.20
49503;DHT22;35409;48.776;9.204;2023-04-06T18:48:01;10.60;63.00
49503;DHT22;35409;48.776;9.204;2023-04-06T18:50:26;10.60;62.80
49503;DHT22;35409;48.776;9.204;2023-04-06T18:52:52;10.60;62.70
49503;DHT22;35409;48.776;9.204;2023-04-06T18:55:18;10.50;62.10
49503;DHT22;35409;48.776;9.204;2023-04-06T18:57:45;10.60;62.00
49503;DHT22;35409;48.776;9.204;2023-04-06T19:00:11;10.60;62.00
49503;DHT22;35409;48.776;9.204;2023-04-06T19:02:36;10.40;62.00